Time;durP1;ratioP1;P1;durP2;ratioP2;P2;SDS_P1;SDS_P2;PMS_P1;PMS_P2;Temp;Humidity;BMP_temperature;BMP_pressure;BME280_temperature;BME280_humidity;BME280_pressure;Samples;Min_cycle;Max_cycle;Signal;HPM_P1;HPM_P2
2021/08/15 00:01:50;;;;;;;9.93;5.35;;;25.70;96.80;;;;;;5094461;28;20069;-51
2021/08/15 00:04:16;;;;;;;19.23;11.35;;;25.70;96.80;;;;;;5092263;28;20293;-49
2021/08/15 00:06:43;;;;;;;22.50;14.50;;;25.70;96.90;;;;;;5100532;28;20020;-50
2021/08/15 00:09:11;;;;;;;22.88;13.43;;;25.70;96.90;;;;;;5097655;28;20329;-55
2021/08/15 00:11:37;;;;;;;21.15;11.15;;;25.70;97.00;;;;;;5076539;28;20108;-50
2021/08/15 00:14:04;;;;;;;15.18;8.88;;;25.60;97.00;;;;;;5092683;28;20021;-51
2021/08/15 00:16:32;;;;;;;12.52;8.75;;;25.70;97.10;;;;;;5093465;28;20020;-53
2021/08/15 00:19:05;;;;;;;14.43;9.73;;;25.70;97.10;;;;;;5095532;28;20024;-59
2021/08/15 00:21:36;;;;;;;21.65;11.98;;;25.60;97.00;;;;;;5093301;28;20020;-57
2021/08/15 00:24:06;;;;;;;13.10;9.07;;;25.60;97.10;;;;;;5095869;28;20070;-51
2021/08/15 00:26:33;;;;;;;13.60;7.22;;;25.60;97.30;;;;;;5096518;28;20229;-51
2021/08/15 00:29:00;;;;;;;12.98;7.82;;;25.60;97.30;;;;;;5084108;28;20033;-52
2021/08/15 00:31:28;;;;;;;14.80;10.05;;;25.60;97.30;;;;;;5093579;28;20059;-53
2021/08/15 00:33:59;;;;;;;19.48;9.63;;;25.50;97.30;;;;;;5091253;28;20025;-50
2021/08/15 00:36:26;;;;;;;13.95;5.50;;;25.50;97.40;;;;;;5087918;28;20028;-56
2021/08/15 00:38:52;;;;;;;6.88;3.60;;;25.50;97.40;;;;;;5072050;28;20024;-52
2021/08/15 00:41:21;;;;;;;7.70;2.72;;;25.50;97.40;;;;;;5092134;28;20062;-52
2021/08/15 00:43:49;;;;;;;7.55;3.15;;;25.50;97.40;;;;;;5090293;28;20099;-52
2021/08/15 00:46:15;;;;;;;8.77;3.00;;;25.40;97.50;;;;;;5100089;28;20027;-51
2021/08/15 00:48:42;;;;;;;7.40;3.28;;;25.40;97.50;;;;;;5093645;28;20220;-52
2021/08/15 00:51:09;;;;;;;9.02;3.55;;;25.40;97.60;;;;;;5095783;28;20028;-51
2021/08/15 00:53:40;;;;;;;11.38;3.38;;;25.40;97.60;;;;;;5092229;28;20035;-50
2021/08/15 00:56:09;;;;;;;10.32;3.85;;;25.50;97.60;;;;;;5098673;28;20069;-50
2021/08/15 00:58:37;;;;;;;11.63;4.45;;;25.40;97.50;;;;;;5103732;28;20039;-52
2021/08/15 01:01:11;;;;;;;5.95;3.42;;;25.40;97.60;;;;;;5102053;28;20028;-49
2021/08/15 01:03:41;;;;;;;6.68;3.42;;;25.40;97.50;;;;;;5101287;28;20099;-50
2021/08/15 01:06:08;;;;;;;9.77;3.70;;;25.40;97.70;;;;;;5092579;28;20024;-50
2021/08/15 01:08:39;;;;;;;8.13;3.17;;;25.40;97.70;;;;;;5095729;28;20040;-58
2021/08/15 01:11:10;;;;;;;10.40;3.10;;;25.40;97.80;;;;;;5100672;28;20047;-58
2021/08/15 01:13:38;;;;;;;7.40;2.15;;;25.40;97.80;;;;;;5086985;28;20029;-51
2021/08/15 01:16:09;;;;;;;9.02;2.20;;;25.40;97.70;;;;;;5106362;28;20020;-53
2021/08/15 01:18:38;;;;;;;10.63;2.35;;;25.30;97.60;;;;;;5106304;28;20181;-53
2021/08/15 01:21:08;;;;;;;11.35;2.83;;;25.40;97.60;;;;;;5106066;28;20016;-50
2021/08/15 01:23:36;;;;;;;8.63;3.20;;;25.40;97.60;;;;;;5106867;28;20075;-47
2021/08/15 01:26:04;;;;;;;9.60;4.38;;;25.40;97.60;;;;;;5105647;28;20024;-50
2021/08/15 01:28:31;;;;;;;7.72;4.32;;;25.50;97.60;;;;;;5106879;28;20044;-46
2021/08/15 01:31:01;;;;;;;8.73;4.07;;;25.50;97.50;;;;;;5106912;28;20020;-45
2021/08/15 01:33:33;;;;;;;9.10;3.85;;;25.50;97.50;;;;;;5106559;28;20016;-54
2021/08/15 01:36:01;;;;;;;9.82;4.03;;;25.50;97.50;;;;;;5106650;28;20243;-58
2021/08/15 01:38:31;;;;;;;10.80;3.72;;;25.50;97.50;;;;;;5106586;28;20016;-56
2021/08/15 01:40:58;;;;;;;5.65;3.72;;;25.50;97.40;;;;;;5106024;28;20020;-47
2021/08/15 01:43:26;;;;;;;7.75;3.38;;;25.50;97.40;;;;;;5106572;28;20020;-55
2021/08/15 01:45:53;;;;;;;8.88;3.25;;;25.60;97.40;;;;;;5106222;28;20016;-51
2021/08/15 01:48:20;;;;;;;7.82;2.80;;;25.60;97.40;;;;;;5105036;28;20032;-56
2021/08/15 01:50:48;;;;;;;7.70;2.63;;;25.50;97.20;;;;;;5106583;28;20213;-50
2021/08/15 01:53:20;;;;;;;7.30;3.08;;;25.50;97.20;;;;;;5105894;28;20083;-47
2021/08/15 01:55:47;;;;;;;;;;;25.50;97.10;;;;;;5106873;28;20244;-58
2021/08/15 01:58:15;;;;;;;7.10;2.83;;;25.50;97.10;;;;;;5104741;28;20147;-54
2021/08/15 02:00:43;;;;;;;8.30;3.13;;;25.50;97.10;;;;;;5106090;28;20035;-49
2021/08/15 02:03:10;;;;;;;11.90;3.53;;;25.50;97.10;;;;;;5106253;28;20023;-53
2021/08/15 02:05:40;;;;;;;6.40;3.20;;;25.50;97.10;;;;;;5105987;28;20402;-53
2021/08/15 02:08:07;;;;;;;11.63;3.83;;;25.50;97.10;;;;;;5105650;28;20035;-52
2021/08/15 02:10:34;;;;;;;8.55;3.35;;;25.60;97.10;;;;;;5106414;28;20012;-53
2021/08/15 02:13:04;;;;;;;8.70;3.40;;;25.50;97.00;;;;;;5105831;28;20020;-49
2021/08/15 02:15:31;;;;;;;6.50;3.40;;;25.50;97.00;;;;;;5106644;28;20012;-48
2021/08/15 02:18:00;;;;;;;9.95;3.30;;;25.50;97.00;;;;;;5105979;28;20032;-50
2021/08/15 02:20:29;;;;;;;7.10;4.35;;;25.50;97.10;;;;;;5106204;28;20117;-50
2021/08/15 02:23:02;;;;;;;10.30;4.50;;;25.50;97.10;;;;;;5105567;28;20366;-49
2021/08/15 02:25:29;;;;;;;10.23;4.60;;;25.50;97.10;;;;;;5106146;28;20031;-50
2021/08/15 02:27:56;;;;;;;10.88;5.20;;;25.50;97.10;;;;;;5104425;28;20103;-48
2021/08/15 02:30:25;;;;;;;12.20;5.68;;;25.50;97.20;;;;;;5105986;28;20301;-47
2021/08/15 02:32:53;;;;;;;9.98;5.97;;;25.50;97.10;;;;;;5105728;28;20022;-49
2021/08/15 02:35:21;;;;;;;10.35;5.80;;;25.50;97.10;;;;;;5106030;28;20047;-52
2021/08/15 02:37:51;;;;;;;8.02;4.97;;;25.50;97.10;;;;;;5105579;28;20038;-53
2021/08/15 02:40:19;;;;;;;7.63;6.05;;;25.50;97.10;;;;;;5105874;28;20027;-51
2021/08/15 02:42:48;;;;;;;10.90;4.95;;;25.50;97.10;;;;;;5105377;28;20031;-47
2021/08/15 02:45:20;;;;;;;9.00;4.07;;;25.50;97.20;;;;;;5105791;28;20031;-51
2021/08/15 02:47:49;;;;;;;10.05;4.00;;;25.50;97.20;;;;;;5105259;28;20020;-54
2021/08/15 02:50:17;;;;;;;9.70;3.70;;;25.50;97.10;;;;;;5104998;28;20024;-46
2021/08/15 02:52:44;;;;;;;5.63;3.00;;;25.50;97.20;;;;;;5105281;28;20012;-55
2021/08/15 02:55:11;;;;;;;5.10;2.85;;;25.50;97.20;;;;;;5105615;28;20074;-53
2021/08/15 02:57:38;;;;;;;6.97;2.88;;;25.50;97.20;;;;;;5104927;28;20065;-51
2021/08/15 03:00:07;;;;;;;7.75;2.60;;;25.50;97.20;;;;;;5105445;28;20074;-59
2021/08/15 03:02:33;;;;;;;5.65;2.30;;;25.50;97.20;;;;;;5104937;28;20024;-50
2021/08/15 03:05:00;;;;;;;7.00;2.50;;;25.50;97.20;;;;;;5105097;28;20237;-50
2021/08/15 03:07:27;;;;;;;5.82;2.70;;;25.50;97.20;;;;;;5104788;28;20020;-46
2021/08/15 03:09:54;;;;;;;3.35;2.13;;;25.50;97.10;;;;;;5105257;28;20030;-52
2021/08/15 03:12:21;;;;;;;7.03;2.50;;;25.50;97.20;;;;;;5104677;28;20015;-52
2021/08/15 03:14:47;;;;;;;4.82;1.95;;;25.50;97.10;;;;;;5105061;28;20028;-51
2021/08/15 03:17:14;;;;;;;3.53;1.85;;;25.50;97.10;;;;;;5104771;28;20020;-50
2021/08/15 03:19:40;;;;;;;4.57;1.70;;;25.40;97.20;;;;;;5104613;28;20077;-52
2021/08/15 03:22:08;;;;;;;6.25;1.80;;;25.50;97.20;;;;;;5104848;28;20300;-53
2021/08/15 03:24:36;;;;;;;4.53;1.70;;;25.40;97.10;;;;;;5104901;28;20319;-52
2021/08/15 03:27:03;;;;;;;7.60;1.65;;;25.40;97.10;;;;;;5104394;28;20067;-51
2021/08/15 03:29:30;;;;;;;4.00;1.58;;;25.50;97.10;;;;;;5104849;28;20031;-51
2021/08/15 03:31:57;;;;;;;5.43;1.50;;;25.40;97.10;;;;;;5104580;28;20020;-52
2021/08/15 03:34:23;;;;;;;8.20;1.85;;;25.40;97.10;;;;;;5104247;28;20024;-52
2021/08/15 03:36:50;;;;;;;4.85;1.90;;;25.40;97.10;;;;;;5104431;28;20078;-50
2021/08/15 03:39:18;;;;;;;3.70;1.50;;;25.40;97.10;;;;;;5104498;28;20247;-52
2021/08/15 03:41:46;;;;;;;5.03;1.50;;;25.40;97.10;;;;;;5104234;28;20043;-56
2021/08/15 03:44:14;;;;;;;6.20;2.63;;;25.40;97.20;;;;;;5104451;28;20031;-49
2021/08/15 03:46:41;;;;;;;6.68;2.28;;;25.40;97.10;;;;;;5104290;28;20223;-54
2021/08/15 03:49:08;;;;;;;4.78;1.90;;;25.40;97.00;;;;;;5104130;28;20036;-52
2021/08/15 03:51:34;;;;;;;6.60;1.73;;;25.40;97.10;;;;;;5104330;28;20204;-53
2021/08/15 03:54:01;;;;;;;2.08;1.45;;;25.40;97.20;;;;;;5104425;28;20020;-56
2021/08/15 03:56:29;;;;;;;3.63;1.77;;;25.40;97.20;;;;;;5104049;28;20319;-47
2021/08/15 03:58:58;;;;;;;2.78;1.70;;;25.40;97.10;;;;;;5104059;28;20023;-51
2021/08/15 04:01:24;;;;;;;8.73;2.00;;;25.40;97.10;;;;;;5104179;28;20024;-47
2021/08/15 04:03:51;;;;;;;4.70;1.73;;;25.40;97.00;;;;;;5103997;28;20020;-46
2021/08/15 04:06:22;;;;;;;4.32;1.60;;;25.40;97.00;;;;;;5104419;28;20304;-49
2021/08/15 04:08:50;;;;;;;2.42;1.50;;;25.40;97.00;;;;;;5103985;28;20301;-53
2021/08/15 04:11:17;;;;;;;6.30;1.80;;;25.40;97.00;;;;;;5104043;28;20024;-51
2021/08/15 04:13:44;;;;;;;6.22;2.05;;;25.40;97.00;;;;;;5102015;28;20020;-58
2021/08/15 04:16:13;;;;;;;13.20;2.42;;;25.40;97.10;;;;;;5083740;28;20020;-54
2021/08/15 04:18:44;;;;;;;12.38;2.28;;;25.40;97.10;;;;;;5083489;28;20017;-47
2021/08/15 04:21:10;;;;;;;12.90;3.28;;;25.40;97.10;;;;;;5082484;28;20063;-52
2021/08/15 04:23:37;;;;;;;26.20;4.10;;;25.30;97.00;;;;;;5083598;28;20021;-50
2021/08/15 04:26:04;;;;;;;25.55;3.65;;;25.30;97.20;;;;;;5083552;28;20287;-52
2021/08/15 04:28:31;;;;;;;37.55;4.60;;;25.30;97.20;;;;;;5083319;28;20040;-48
2021/08/15 04:30:58;;;;;;;32.33;4.75;;;25.30;97.30;;;;;;5083669;28;20024;-50
2021/08/15 04:33:25;;;;;;;26.35;3.42;;;25.30;97.20;;;;;;5083328;28;20021;-53
2021/08/15 04:35:53;;;;;;;36.92;4.25;;;25.40;97.30;;;;;;5082308;28;20031;-50
2021/08/15 04:38:21;;;;;;;23.27;3.67;;;25.40;97.20;;;;;;5083367;28;20075;-46
2021/08/15 04:40:50;;;;;;;15.35;2.92;;;25.30;97.10;;;;;;5083417;28;20332;-48
2021/08/15 04:43:17;;;;;;;17.13;2.72;;;25.30;97.40;;;;;;5083454;28;20017;-55
2021/08/15 04:45:46;;;;;;;14.77;2.45;;;25.30;97.20;;;;;;5083550;28;20028;-50
2021/08/15 04:48:14;;;;;;;16.27;3.03;;;25.30;97.20;;;;;;5083061;28;20312;-45
2021/08/15 04:50:41;;;;;;;11.27;2.53;;;25.30;97.20;;;;;;5085760;28;20193;-47
2021/08/15 04:53:07;;;;;;;7.55;2.03;;;25.30;97.20;;;;;;5087219;28;20022;-50
2021/08/15 04:55:35;;;;;;;11.10;2.22;;;25.40;97.20;;;;;;5085966;28;20506;-49
2021/08/15 04:58:02;;;;;;;9.38;2.20;;;25.30;97.30;;;;;;5086989;28;20027;-53
2021/08/15 05:00:29;;;;;;;13.60;2.40;;;25.30;97.30;;;;;;5086999;28;20020;-49
2021/08/15 05:02:55;;;;;;;6.18;2.10;;;25.30;97.30;;;;;;5086923;28;20020;-53
2021/08/15 05:05:22;;;;;;;11.18;1.98;;;25.40;97.30;;;;;;5086973;28;20024;-47
2021/08/15 05:07:49;;;;;;;5.22;1.65;;;25.30;97.30;;;;;;5086825;28;20046;-48
2021/08/15 05:10:17;;;;;;;8.27;1.80;;;25.30;97.30;;;;;;5086617;28;20015;-54
2021/08/15 05:12:43;;;;;;;5.70;1.77;;;25.30;97.30;;;;;;5086732;28;20012;-50
2021/08/15 05:15:11;;;;;;;8.60;2.28;;;25.30;97.30;;;;;;5086678;28;20023;-47
2021/08/15 05:17:38;;;;;;;8.55;1.77;;;25.30;97.30;;;;;;5086581;28;20032;-47
2021/08/15 05:20:05;;;;;;;10.02;1.75;;;25.30;97.30;;;;;;5085516;28;20044;-49
2021/08/15 05:22:32;;;;;;;6.60;1.83;;;25.30;97.30;;;;;;5087027;28;20028;-53
2021/08/15 05:24:58;;;;;;;6.88;1.80;;;25.30;97.40;;;;;;5086411;28;20225;-51
2021/08/15 05:27:25;;;;;;;7.60;1.92;;;25.30;97.40;;;;;;5086352;28;20068;-48
2021/08/15 05:29:51;;;;;;;7.03;2.10;;;25.30;97.40;;;;;;5086432;28;20044;-53
2021/08/15 05:32:18;;;;;;;7.28;1.80;;;25.30;97.40;;;;;;5086774;28;20021;-51
2021/08/15 05:34:45;;;;;;;7.68;1.60;;;25.30;97.40;;;;;;5086251;28;20017;-51
2021/08/15 05:37:11;;;;;;;11.40;2.08;;;25.30;97.40;;;;;;5085307;28;20021;-54
2021/08/15 05:39:38;;;;;;;5.57;2.00;;;25.30;97.40;;;;;;5086190;28;20028;-51
2021/08/15 05:42:05;;;;;;;4.70;1.85;;;25.30;97.40;;;;;;5086777;28;20033;-50
2021/08/15 05:44:31;;;;;;;7.50;2.00;;;25.30;97.30;;;;;;5085035;28;20244;-46
2021/08/15 05:46:58;;;;;;;6.88;2.05;;;25.30;97.30;;;;;;5086310;28;20031;-51
2021/08/15 05:49:25;;;;;;;8.15;2.20;;;25.30;97.40;;;;;;5085968;28;20209;-49
2021/08/15 05:51:51;;;;;;;5.43;2.28;;;25.30;97.40;;;;;;5086568;28;20048;-52
2021/08/15 05:54:18;;;;;;;5.13;2.10;;;25.30;97.30;;;;;;5085883;28;20016;-52
2021/08/15 05:56:44;;;;;;;5.75;2.20;;;25.30;97.40;;;;;;5086279;28;20087;-53
2021/08/15 05:59:11;;;;;;;7.68;2.53;;;25.30;97.40;;;;;;5085853;28;20020;-52
2021/08/15 06:01:38;;;;;;;5.43;2.20;;;25.30;97.40;;;;;;5084482;28;20088;-52
2021/08/15 06:04:04;;;;;;;6.80;2.20;;;25.20;97.30;;;;;;5085961;28;20082;-49
2021/08/15 06:06:31;;;;;;;6.43;2.20;;;25.20;97.30;;;;;;5086159;28;20050;-47
2021/08/15 06:08:58;;;;;;;4.40;1.80;;;25.20;97.30;;;;;;5085508;28;20024;-52
2021/08/15 06:11:24;;;;;;;7.35;1.80;;;25.20;97.30;;;;;;5085873;28;20020;-51
2021/08/15 06:13:52;;;;;;;4.68;1.98;;;25.20;97.30;;;;;;5085581;28;20182;-53
2021/08/15 06:16:19;;;;;;;4.88;1.88;;;25.20;97.30;;;;;;5085650;28;20036;-49
2021/08/15 06:18:45;;;;;;;5.35;2.05;;;25.20;97.40;;;;;;5085496;28;20031;-51
2021/08/15 06:21:12;;;;;;;6.25;2.30;;;25.20;97.40;;;;;;5085643;28;20035;-51
2021/08/15 06:23:39;;;;;;;5.30;1.90;;;25.20;97.40;;;;;;5085394;28;20020;-50
2021/08/15 06:26:06;;;;;;;6.40;2.30;;;25.20;97.40;;;;;;5085524;28;20032;-54
2021/08/15 06:28:32;;;;;;;6.80;2.10;;;25.20;97.40;;;;;;5085274;28;20044;-53
2021/08/15 06:30:59;;;;;;;7.47;1.90;;;25.20;97.40;;;;;;5085433;28;20090;-47
2021/08/15 06:33:26;;;;;;;4.53;2.00;;;25.20;97.40;;;;;;5085078;28;20289;-48
2021/08/15 06:35:52;;;;;;;10.43;2.20;;;25.20;97.40;;;;;;5085318;28;20044;-50
2021/08/15 06:38:19;;;;;;;7.03;1.95;;;25.20;97.40;;;;;;5085175;28;20028;-53
2021/08/15 06:40:45;;;;;;;4.60;2.03;;;25.10;97.40;;;;;;5084994;28;20025;-50
2021/08/15 06:43:12;;;;;;;4.18;2.00;;;25.20;97.40;;;;;;5084982;28;20020;-49
2021/08/15 06:45:40;;;;;;;4.88;2.00;;;25.20;97.50;;;;;;5083704;28;20020;-53
2021/08/15 06:48:07;;;;;;;8.90;1.85;;;25.20;97.40;;;;;;5084625;28;20035;-53
2021/08/15 06:50:34;;;;;;;7.13;1.67;;;25.20;97.40;;;;;;5084853;28;20067;-54
2021/08/15 06:53:01;;;;;;;6.70;2.17;;;25.10;97.40;;;;;;5084891;28;20123;-54
2021/08/15 06:55:29;;;;;;;5.50;1.92;;;25.20;97.50;;;;;;5084557;28;20016;-50
2021/08/15 06:57:56;;;;;;;5.30;1.90;;;25.10;97.50;;;;;;5085209;28;20062;-57
2021/08/15 07:00:22;;;;;;;4.65;1.83;;;25.10;97.50;;;;;;5083567;28;20308;-54
2021/08/15 07:02:49;;;;;;;8.93;2.33;;;25.10;97.40;;;;;;5084488;28;20035;-52
2021/08/15 07:05:17;;;;;;;4.07;1.85;;;25.10;97.40;;;;;;5084475;28;20020;-55
2021/08/15 07:07:43;;;;;;;5.03;2.20;;;25.10;97.40;;;;;;5084464;28;20040;-52
2021/08/15 07:10:10;;;;;;;6.03;2.13;;;25.10;97.40;;;;;;5084378;28;20023;-61
2021/08/15 07:12:37;;;;;;;5.25;2.05;;;25.10;97.40;;;;;;5084637;28;20340;-56
2021/08/15 07:15:06;;;;;;;8.02;2.30;;;25.10;97.40;;;;;;5084236;28;20241;-53
2021/08/15 07:17:36;;;;;;;7.20;2.30;;;25.10;97.40;;;;;;5084784;28;20028;-57
2021/08/15 07:20:05;;;;;;;6.88;2.42;;;25.10;97.50;;;;;;5082717;28;20340;-52
2021/08/15 07:22:32;;;;;;;4.78;2.30;;;25.10;97.60;;;;;;5082537;28;20021;-54
2021/08/15 07:24:58;;;;;;;4.70;2.75;;;25.10;97.50;;;;;;5082564;28;20043;-53
2021/08/15 07:27:25;;;;;;;7.53;3.40;;;25.10;97.60;;;;;;5082499;28;20115;-55
2021/08/15 07:29:52;;;;;;;13.27;3.03;;;25.10;97.60;;;;;;5081557;28;20198;-53
2021/08/15 07:32:18;;;;;;;5.60;2.80;;;25.10;97.60;;;;;;5082438;28;20021;-58
2021/08/15 07:34:45;;;;;;;7.78;3.03;;;25.10;97.70;;;;;;5082912;28;20201;-55
2021/08/15 07:37:11;;;;;;;6.72;3.00;;;25.10;97.70;;;;;;5083421;28;20040;-55
2021/08/15 07:39:38;;;;;;;9.30;3.20;;;25.10;97.70;;;;;;5082295;28;20044;-56
2021/08/15 07:42:05;;;;;;;6.75;3.13;;;25.10;97.70;;;;;;5082708;28;20032;-54
2021/08/15 07:44:31;;;;;;;7.50;2.78;;;25.10;97.80;;;;;;5082293;28;20073;-54
2021/08/15 07:46:58;;;;;;;5.75;3.17;;;25.10;97.70;;;;;;5082466;28;20032;-55
2021/08/15 07:49:24;;;;;;;6.38;3.25;;;25.10;97.70;;;;;;5082069;28;20020;-53
2021/08/15 07:51:51;;;;;;;6.57;3.05;;;25.10;97.70;;;;;;5083161;28;20036;-53
2021/08/15 07:54:18;;;;;;;7.75;3.05;;;25.10;97.70;;;;;;5083737;28;20012;-56
2021/08/15 07:56:44;;;;;;;8.50;3.20;;;25.10;97.70;;;;;;5084143;28;20031;-55
2021/08/15 07:59:11;;;;;;;9.00;2.67;;;25.10;97.70;;;;;;5083927;28;20040;-54
2021/08/15 08:01:38;;;;;;;3.55;2.30;;;25.10;97.70;;;;;;5083976;28;20043;-51
2021/08/15 08:04:04;;;;;;;9.73;2.30;;;25.00;97.60;;;;;;5083830;28;20021;-57
2021/08/15 08:06:31;;;;;;;5.45;2.58;;;25.00;97.60;;;;;;5084011;28;20047;-55
2021/08/15 08:08:58;;;;;;;9.95;2.60;;;25.10;97.70;;;;;;5083560;28;20087;-56
2021/08/15 08:11:24;;;;;;;5.40;1.85;;;25.10;97.60;;;;;;5084262;28;20042;-53
2021/08/15 08:13:51;;;;;;;4.95;1.77;;;25.00;97.70;;;;;;5083730;28;20040;-52
2021/08/15 08:16:17;;;;;;;9.68;2.30;;;25.00;97.70;;;;;;5083747;28;20026;-51
2021/08/15 08:18:44;;;;;;;7.35;2.30;;;25.00;97.70;;;;;;5083969;28;20028;-56
2021/08/15 08:21:11;;;;;;;8.13;2.55;;;25.00;97.70;;;;;;5083823;28;20028;-50
2021/08/15 08:23:38;;;;;;;6.22;2.67;;;25.00;97.70;;;;;;5083648;28;20020;-53
2021/08/15 08:26:04;;;;;;;7.70;3.28;;;25.00;97.70;;;;;;5086838;28;20389;-57
2021/08/15 08:28:31;;;;;;;8.50;2.45;;;25.00;97.70;;;;;;5087452;28;20044;-52
2021/08/15 08:30:57;;;;;;;8.85;2.40;;;25.00;97.70;;;;;;5087753;28;20051;-56
2021/08/15 08:33:24;;;;;;;6.68;2.45;;;25.00;97.70;;;;;;5087502;28;20013;-59
2021/08/15 08:35:52;;;;;;;7.28;2.40;;;25.00;97.60;;;;;;5087502;28;20027;-58
2021/08/15 08:38:19;;;;;;;7.38;2.60;;;25.00;97.60;;;;;;5087397;28;20025;-56
2021/08/15 08:40:48;;;;;;;5.65;2.22;;;25.00;97.60;;;;;;5087347;28;20024;-56
2021/08/15 08:43:14;;;;;;;9.98;2.70;;;25.00;97.60;;;;;;5087384;28;20083;-52
2021/08/15 08:45:45;;;;;;;8.88;2.33;;;25.00;97.70;;;;;;5087384;28;20024;-57
2021/08/15 08:48:12;;;;;;;8.15;2.38;;;25.00;97.70;;;;;;5087211;28;20020;-61
2021/08/15 08:50:39;;;;;;;11.48;2.05;;;24.90;97.70;;;;;;5087407;28;20096;-53
2021/08/15 08:53:06;;;;;;;9.25;2.70;;;25.00;97.70;;;;;;5087150;28;20017;-53
2021/08/15 08:55:33;;;;;;;9.10;2.30;;;24.90;97.70;;;;;;5087155;28;20182;-54
2021/08/15 08:57:59;;;;;;;7.72;2.40;;;24.90;97.70;;;;;;5087145;28;20047;-55
2021/08/15 09:00:26;;;;;;;3.72;2.15;;;24.90;97.70;;;;;;5087000;28;20025;-61
2021/08/15 09:02:59;;;;;;;13.50;2.78;;;24.90;97.70;;;;;;5086929;28;20051;-56
2021/08/15 09:05:32;;;;;;;4.25;2.00;;;24.90;97.60;;;;;;5086914;28;20097;-56
2021/08/15 09:08:00;;;;;;;9.43;2.42;;;24.90;97.60;;;;;;5086743;28;20062;-55
2021/08/15 09:10:44;;;;;;;6.90;2.13;;;24.90;97.60;;;;;;5086820;28;20009;-46
2021/08/15 09:13:11;;;;;;;7.88;2.13;;;24.90;97.60;;;;;;5086675;28;20021;-52
2021/08/15 09:15:38;;;;;;;7.95;2.08;;;24.90;97.60;;;;;;5086910;28;20031;-56
2021/08/15 09:18:04;;;;;;;7.07;1.95;;;24.90;97.60;;;;;;5086755;28;20028;-54
2021/08/15 09:20:43;;;;;;;5.00;2.35;;;24.90;97.60;;;;;;5086516;28;20025;-54
2021/08/15 09:23:27;;;;;;;5.40;2.53;;;24.90;97.70;;;;;;5086635;28;20016;-60
2021/08/15 09:26:11;;;;;;;5.90;2.00;;;24.90;97.60;;;;;;5086594;28;20204;-54
2021/08/15 09:28:39;;;;;;;14.00;3.30;;;24.90;97.70;;;;;;5086622;28;20036;-54
2021/08/15 09:31:24;;;;;;;7.47;2.35;;;24.90;97.70;;;;;;5086464;28;20017;-53
2021/08/15 09:33:52;;;;;;;4.35;2.20;;;24.90;97.70;;;;;;5086647;28;20017;-56
2021/08/15 09:36:40;;;;;;;8.07;2.67;;;24.90;97.70;;;;;;5086253;28;20273;-56
2021/08/15 09:39:08;;;;;;;6.75;2.70;;;24.90;97.80;;;;;;5086375;28;20044;-55
2021/08/15 09:41:37;;;;;;;9.32;2.85;;;24.90;97.80;;;;;;5086443;28;20059;-62
2021/08/15 09:44:27;;;;;;;9.95;3.08;;;24.90;97.80;;;;;;5086277;28;20031;-58
2021/08/15 09:47:01;;;;;;;12.55;3.55;;;24.90;97.70;;;;;;5086378;28;20100;-55
2021/08/15 09:49:39;;;;;;;20.88;4.20;;;24.90;97.80;;;;;;5085963;28;20365;-58
2021/08/15 09:52:09;;;;;;;10.07;2.95;;;24.90;97.80;;;;;;5086340;28;20025;-56
2021/08/15 09:54:36;;;;;;;12.45;3.45;;;24.90;97.90;;;;;;5085988;28;20043;-59
2021/08/15 09:57:06;;;;;;;10.15;3.65;;;24.90;98.00;;;;;;5085890;28;20039;-58
2021/08/15 09:59:38;;;;;;;9.73;3.65;;;24.90;98.00;;;;;;5085848;28;20029;-48
2021/08/15 10:02:07;;;;;;;11.55;3.67;;;24.90;98.10;;;;;;5085845;28;20083;-50
2021/08/15 10:04:34;;;;;;;11.38;2.95;;;24.90;98.10;;;;;;5085928;28;20065;-52
2021/08/15 10:07:01;;;;;;;13.82;3.65;;;24.90;98.00;;;;;;5085953;28;20197;-52
2021/08/15 10:09:30;;;;;;;8.68;3.40;;;24.90;98.00;;;;;;5085702;28;20091;-54
2021/08/15 10:11:57;;;;;;;13.18;3.10;;;24.90;98.00;;;;;;5085974;28;20024;-51
2021/08/15 10:14:24;;;;;;;9.80;2.75;;;24.90;98.00;;;;;;5085519;28;20186;-50
2021/08/15 10:16:58;;;;;;;8.57;2.63;;;24.90;98.00;;;;;;5085493;28;20017;-57
2021/08/15 10:20:01;;;;;;;12.30;2.80;;;24.90;98.00;;;;;;5085413;28;20066;-52
2021/08/15 10:22:32;;;;;;;7.75;2.63;;;24.90;98.00;;;;;;5085984;28;20029;-53
2021/08/15 10:25:04;;;;;;;8.40;2.72;;;24.80;98.00;;;;;;5085309;28;20028;-53
2021/08/15 10:27:39;;;;;;;;;;;24.80;98.00;;;;;;5085749;28;20120;-56
2021/08/15 10:30:23;;;;;;;9.40;2.00;;;24.80;98.00;;;;;;5085207;28;20129;-54
2021/08/15 10:32:56;;;;;;;7.72;2.20;;;24.70;98.20;;;;;;5085396;28;20020;-56
2021/08/15 10:35:24;;;;;;;6.78;2.08;;;24.70;98.10;;;;;;5085102;28;20030;-51
2021/08/15 10:37:55;;;;;;;13.57;2.00;;;24.70;98.10;;;;;;5085215;28;20080;-55
2021/08/15 10:40:43;;;;;;;11.93;2.10;;;24.80;98.00;;;;;;5094305;28;20064;-54
2021/08/15 10:43:11;;;;;;;11.13;2.50;;;24.80;97.90;;;;;;5105410;28;20031;-53
2021/08/15 10:45:40;;;;;;;12.98;2.38;;;24.80;97.90;;;;;;5105313;28;20212;-56
2021/08/15 10:48:09;;;;;;;12.48;2.13;;;24.80;97.90;;;;;;5104408;28;20052;-49
2021/08/15 10:50:53;;;;;;;16.48;2.63;;;24.80;97.80;;;;;;5105395;28;20188;-47
2021/08/15 10:53:37;;;;;;;12.73;2.40;;;24.80;97.80;;;;;;5105136;28;20043;-49
2021/08/15 10:56:06;;;;;;;15.88;6.18;;;24.80;97.80;;;;;;5105319;28;20026;-52
2021/08/15 10:58:47;;;;;;;19.02;6.82;;;24.80;97.80;;;;;;5105020;28;20048;-52
2021/08/15 11:01:18;;;;;;;27.42;8.30;;;24.70;97.80;;;;;;5105180;28;20091;-51
2021/08/15 11:03:48;;;;;;;15.90;5.18;;;24.80;97.80;;;;;;5104865;28;20058;-55
2021/08/15 11:06:46;;;;;;;18.52;4.68;;;24.80;97.80;;;;;;5105072;28;20069;-55
2021/08/15 11:09:15;;;;;;;67.65;8.68;;;24.70;97.90;;;;;;5089272;28;20040;-53
2021/08/15 11:12:04;;;;;;;44.63;6.68;;;24.70;98.10;;;;;;5105113;28;20043;-54
2021/08/15 11:14:31;;;;;;;33.90;4.97;;;24.70;97.90;;;;;;5104912;28;20031;-55
2021/08/15 11:17:11;;;;;;;23.88;4.07;;;24.70;97.90;;;;;;5105156;28;20055;-52
2021/08/15 11:19:39;;;;;;;17.70;3.75;;;24.70;97.90;;;;;;5104490;28;20084;-47
2021/08/15 11:22:31;;;;;;;19.67;3.70;;;24.80;97.90;;;;;;5105049;28;20023;-48
2021/08/15 11:24:59;;;;;;;;;;;24.80;97.90;;;;;;5101597;28;20343;-56
2021/08/15 11:27:37;;;;;;;21.73;2.90;;;24.80;98.00;;;;;;5103288;28;19947;-50
2021/08/15 11:30:22;;;;;;;13.90;2.60;;;24.80;98.00;;;;;;5104307;28;20054;-53
2021/08/15 11:32:57;;;;;;;9.82;2.45;;;24.80;98.00;;;;;;5104332;28;20070;-47
2021/08/15 11:35:31;;;;;;;15.10;2.35;;;24.80;98.00;;;;;;5104090;28;20024;-51
2021/08/15 11:37:58;;;;;;;13.65;2.63;;;24.80;98.00;;;;;;5104617;28;20279;-51
2021/08/15 11:40:31;;;;;;;10.77;2.25;;;24.80;98.00;;;;;;5104305;28;20201;-47
2021/08/15 21:16:36;;;;;;;10.25;4.90;;;26.30;97.80;;;;;;5100687;27;20472;-60
2021/08/15 21:19:06;;;;;;;6.27;4.70;;;26.40;98.20;;;;;;5101374;28;20089;-54
2021/08/15 21:21:34;;;;;;;6.00;3.95;;;26.40;98.20;;;;;;5101257;28;20677;-55
2021/08/15 21:24:01;;;;;;;9.63;3.97;;;26.40;98.00;;;;;;5100949;28;20035;-52
2021/08/15 21:26:29;;;;;;;6.10;3.92;;;26.40;97.90;;;;;;5101098;28;20024;-52
2021/08/15 21:29:00;;;;;;;4.65;3.42;;;26.30;98.10;;;;;;5101251;28;20032;-54
2021/08/15 21:31:27;;;;;;;6.93;3.53;;;26.20;98.30;;;;;;5101095;28;20354;-53
2021/08/15 21:34:01;;;;;;;6.57;3.75;;;26.20;98.50;;;;;;5100895;28;20271;-56
2021/08/15 21:36:29;;;;;;;5.18;3.50;;;26.30;98.20;;;;;;5100777;28;20020;-53
2021/08/15 21:38:56;;;;;;;7.93;4.78;;;26.30;98.20;;;;;;5100620;28;20021;-54
2021/08/15 21:41:22;;;;;;;7.53;5.03;;;26.40;98.20;;;;;;5100826;28;20016;-61
2021/08/15 21:43:49;;;;;;;7.38;5.25;;;26.40;98.10;;;;;;5099384;28;20088;-53
2021/08/15 21:46:16;;;;;;;7.80;5.30;;;26.40;98.30;;;;;;5100723;28;20254;-61
2021/08/15 21:48:43;;;;;;;6.95;4.38;;;26.40;98.20;;;;;;5100481;28;20087;-55
2021/08/15 21:51:09;;;;;;;7.75;4.78;;;26.40;98.30;;;;;;5100439;28;20070;-64
2021/08/15 21:53:36;;;;;;;8.63;5.03;;;26.40;97.90;;;;;;5100386;28;20016;-63
2021/08/15 21:56:07;;;;;;;5.93;4.88;;;26.40;97.70;;;;;;5100416;28;20047;-55
2021/08/15 21:58:34;;;;;;;7.53;4.63;;;26.40;97.20;;;;;;5100248;28;20307;-53
2021/08/15 22:01:01;;;;;;;7.47;5.63;;;26.50;97.40;;;;;;5100535;28;20101;-59
2021/08/15 22:03:27;;;;;;;7.32;5.05;;;26.50;97.20;;;;;;5100388;28;20028;-56
2021/08/15 22:05:54;;;;;;;5.55;4.78;;;26.50;97.20;;;;;;5100494;28;20083;-55
2021/08/15 22:08:21;;;;;;;5.95;4.47;;;26.50;97.10;;;;;;5100241;28;20028;-55
2021/08/15 22:10:48;;;;;;;5.65;4.10;;;26.50;97.00;;;;;;5100670;28;20027;-53
2021/08/15 22:13:14;;;;;;;4.43;3.70;;;26.50;97.00;;;;;;5100028;28;20055;-51
2021/08/15 22:15:41;;;;;;;8.27;4.07;;;26.50;96.90;;;;;;5096243;28;20040;-54
2021/08/15 22:18:08;;;;;;;4.72;3.55;;;26.50;96.90;;;;;;5086559;28;20021;-58
2021/08/15 22:20:35;;;;;;;5.75;3.42;;;26.50;96.80;;;;;;5086721;28;20177;-60
2021/08/15 22:23:02;;;;;;;6.22;3.38;;;26.50;96.90;;;;;;5086483;28;20373;-56
2021/08/15 22:25:28;;;;;;;5.05;3.20;;;26.50;97.00;;;;;;5086287;28;20056;-55
2021/08/15 22:27:55;;;;;;;5.40;3.25;;;26.50;97.00;;;;;;5086289;28;20058;-65